sensor_id;sensor_type;location;lat;lon;timestamp;P1;durP1;ratioP1;P2;durP2;ratioP2
75021;SDS011;63583;49.976;20.182;2024-03-25T00:01:34;8.82;;;4.85;;
75021;SDS011;63583;49.976;20.182;2024-03-25T00:03:59;8.57;;;4.93;;
75021;SDS011;63583;49.976;20.182;2024-03-25T00:06:30;9.25;;;4.53;;
75021;SDS011;63583;49.976;20.182;2024-03-25T00:09:02;8.27;;;4.20;;
75021;SDS011;63583;49.976;20.182;2024-03-25T00:11:29;9.07;;;4.60;;
75021;SDS011;63583;49.976;20.182;2024-03-25T00:13:54;10.77;;;5.40;;
75021;SDS011;63583;49.976;20.182;2024-03-25T00:16:22;12.68;;;6.55;;
75021;SDS011;63583;49.976;20.182;2024-03-25T00:18:47;12.23;;;6.10;;
75021;SDS011;63583;49.976;20.182;2024-03-25T00:21:13;10.52;;;6.20;;
75021;SDS011;63583;49.976;20.182;2024-03-25T00:23:39;10.63;;;6.05;;
75021;SDS011;63583;49.976;20.182;2024-03-25T00:26:05;9.32;;;5.45;;
75021;SDS011;63583;49.976;20.182;2024-03-25T00:28:31;8.63;;;5.43;;
75021;SDS011;63583;49.976;20.182;2024-03-25T00:30:57;10.80;;;5.45;;
75021;SDS011;63583;49.976;20.182;2024-03-25T00:33:23;9.30;;;5.30;;
75021;SDS011;63583;49.976;20.182;2024-03-25T00:35:49;11.15;;;5.65;;
75021;SDS011;63583;49.976;20.182;2024-03-25T00:38:15;9.93;;;5.60;;
75021;SDS011;63583;49.976;20.182;2024-03-25T00:40:41;10.63;;;5.65;;
75021;SDS011;63583;49.976;20.182;2024-03-25T00:43:07;9.82;;;5.20;;
75021;SDS011;63583;49.976;20.182;2024-03-25T00:45:32;5.97;;;4.03;;
75021;SDS011;63583;49.976;20.182;2024-03-25T00:47:58;7.18;;;3.80;;
75021;SDS011;63583;49.976;20.182;2024-03-25T00:50:25;8.68;;;4.72;;
75021;SDS011;63583;49.976;20.182;2024-03-25T00:52:51;8.32;;;4.50;;
75021;SDS011;63583;49.976;20.182;2024-03-25T00:55:17;8.70;;;5.18;;
75021;SDS011;63583;49.976;20.182;2024-03-25T00:57:43;7.30;;;4.35;;
75021;SDS011;63583;49.976;20.182;2024-03-25T01:00:09;7.75;;;4.82;;
75021;SDS011;63583;49.976;20.182;2024-03-25T01:02:35;6.63;;;4.60;;
75021;SDS011;63583;49.976;20.182;2024-03-25T01:05:01;6.80;;;4.00;;
75021;SDS011;63583;49.976;20.182;2024-03-25T01:07:27;7.97;;;4.20;;
75021;SDS011;63583;49.976;20.182;2024-03-25T01:09:53;7.22;;;4.07;;
75021;SDS011;63583;49.976;20.182;2024-03-25T01:12:19;6.97;;;3.47;;
75021;SDS011;63583;49.976;20.182;2024-03-25T01:14:45;6.82;;;3.55;;
75021;SDS011;63583;49.976;20.182;2024-03-25T01:17:10;7.82;;;3.72;;
75021;SDS011;63583;49.976;20.182;2024-03-25T01:19:36;7.57;;;3.53;;
75021;SDS011;63583;49.976;20.182;2024-03-25T01:22:02;5.53;;;3.22;;
75021;SDS011;63583;49.976;20.182;2024-03-25T01:24:28;6.35;;;3.42;;
75021;SDS011;63583;49.976;20.182;2024-03-25T01:26:54;9.88;;;3.83;;
75021;SDS011;63583;49.976;20.182;2024-03-25T01:29:20;5.95;;;3.10;;
75021;SDS011;63583;49.976;20.182;2024-03-25T01:31:45;6.40;;;2.55;;
75021;SDS011;63583;49.976;20.182;2024-03-25T01:34:11;4.97;;;3.10;;
75021;SDS011;63583;49.976;20.182;2024-03-25T01:36:37;5.63;;;2.97;;
75021;SDS011;63583;49.976;20.182;2024-03-25T01:39:03;6.78;;;3.03;;
75021;SDS011;63583;49.976;20.182;2024-03-25T01:41:30;6.18;;;3.17;;
75021;SDS011;63583;49.976;20.182;2024-03-25T01:43:56;6.70;;;3.50;;
75021;SDS011;63583;49.976;20.182;2024-03-25T01:46:22;7.63;;;3.30;;
75021;SDS011;63583;49.976;20.182;2024-03-25T01:48:48;8.25;;;3.97;;
75021;SDS011;63583;49.976;20.182;2024-03-25T01:51:16;6.13;;;3.40;;
75021;SDS011;63583;49.976;20.182;2024-03-25T01:53:43;6.30;;;3.28;;
75021;SDS011;63583;49.976;20.182;2024-03-25T01:56:10;8.05;;;3.58;;
75021;SDS011;63583;49.976;20.182;2024-03-25T01:58:37;7.20;;;3.92;;
75021;SDS011;63583;49.976;20.182;2024-03-25T02:01:03;7.63;;;4.50;;
75021;SDS011;63583;49.976;20.182;2024-03-25T02:03:29;7.68;;;4.07;;
75021;SDS011;63583;49.976;20.182;2024-03-25T02:05:57;7.28;;;3.50;;
75021;SDS011;63583;49.976;20.182;2024-03-25T02:08:26;5.60;;;2.97;;
75021;SDS011;63583;49.976;20.182;2024-03-25T02:10:55;6.22;;;3.50;;
75021;SDS011;63583;49.976;20.182;2024-03-25T02:13:21;6.78;;;3.25;;
75021;SDS011;63583;49.976;20.182;2024-03-25T02:15:47;6.47;;;3.25;;
75021;SDS011;63583;49.976;20.182;2024-03-25T02:20:45;6.30;;;2.95;;
75021;SDS011;63583;49.976;20.182;2024-03-25T02:23:12;7.60;;;3.53;;
75021;SDS011;63583;49.976;20.182;2024-03-25T02:25:38;8.48;;;4.30;;
75021;SDS011;63583;49.976;20.182;2024-03-25T02:28:06;6.72;;;3.95;;
75021;SDS011;63583;49.976;20.182;2024-03-25T02:30:32;6.72;;;4.40;;
75021;SDS011;63583;49.976;20.182;2024-03-25T02:32:57;6.82;;;3.97;;
75021;SDS011;63583;49.976;20.182;2024-03-25T02:35:23;8.05;;;4.50;;
75021;SDS011;63583;49.976;20.182;2024-03-25T02:37:51;6.60;;;3.92;;
75021;SDS011;63583;49.976;20.182;2024-03-25T02:40:18;6.85;;;4.10;;
75021;SDS011;63583;49.976;20.182;2024-03-25T02:42:46;6.85;;;4.00;;
75021;SDS011;63583;49.976;20.182;2024-03-25T02:45:12;6.55;;;3.75;;
75021;SDS011;63583;49.976;20.182;2024-03-25T02:47:38;7.68;;;3.92;;
75021;SDS011;63583;49.976;20.182;2024-03-25T02:50:04;6.22;;;3.90;;
75021;SDS011;63583;49.976;20.182;2024-03-25T02:52:30;5.32;;;2.42;;
75021;SDS011;63583;49.976;20.182;2024-03-25T02:54:56;8.23;;;3.40;;
75021;SDS011;63583;49.976;20.182;2024-03-25T02:57:22;6.25;;;3.17;;
75021;SDS011;63583;49.976;20.182;2024-03-25T02:59:47;5.70;;;3.13;;
75021;SDS011;63583;49.976;20.182;2024-03-25T03:02:13;6.43;;;3.55;;
75021;SDS011;63583;49.976;20.182;2024-03-25T03:04:39;6.63;;;3.58;;
75021;SDS011;63583;49.976;20.182;2024-03-25T03:07:05;6.75;;;3.00;;
75021;SDS011;63583;49.976;20.182;2024-03-25T03:09:31;6.88;;;3.22;;
75021;SDS011;63583;49.976;20.182;2024-03-25T03:11:56;5.13;;;3.67;;
75021;SDS011;63583;49.976;20.182;2024-03-25T03:14:22;5.85;;;3.40;;
75021;SDS011;63583;49.976;20.182;2024-03-25T03:16:48;4.45;;;2.47;;
75021;SDS011;63583;49.976;20.182;2024-03-25T03:19:14;5.38;;;2.90;;
75021;SDS011;63583;49.976;20.182;2024-03-25T03:21:40;5.03;;;3.28;;
75021;SDS011;63583;49.976;20.182;2024-03-25T03:24:06;5.85;;;3.17;;
75021;SDS011;63583;49.976;20.182;2024-03-25T03:26:33;6.40;;;3.15;;
75021;SDS011;63583;49.976;20.182;2024-03-25T03:28:59;6.93;;;3.00;;
75021;SDS011;63583;49.976;20.182;2024-03-25T03:31:25;6.13;;;3.20;;
75021;SDS011;63583;49.976;20.182;2024-03-25T03:33:51;4.32;;;2.75;;
75021;SDS011;63583;49.976;20.182;2024-03-25T03:36:18;5.32;;;2.97;;
75021;SDS011;63583;49.976;20.182;2024-03-25T03:38:47;7.43;;;3.25;;
75021;SDS011;63583;49.976;20.182;2024-03-25T03:41:13;6.10;;;3.17;;
75021;SDS011;63583;49.976;20.182;2024-03-25T03:43:38;5.40;;;2.92;;
75021;SDS011;63583;49.976;20.182;2024-03-25T03:46:04;5.45;;;3.20;;
75021;SDS011;63583;49.976;20.182;2024-03-25T03:48:30;5.40;;;3.17;;
75021;SDS011;63583;49.976;20.182;2024-03-25T03:50:56;5.05;;;2.85;;
75021;SDS011;63583;49.976;20.182;2024-03-25T03:53:22;5.93;;;3.05;;
75021;SDS011;63583;49.976;20.182;2024-03-25T03:55:58;5.75;;;3.13;;
75021;SDS011;63583;49.976;20.182;2024-03-25T03:58:27;4.88;;;2.80;;
75021;SDS011;63583;49.976;20.182;2024-03-25T04:00:53;5.35;;;2.92;;
75021;SDS011;63583;49.976;20.182;2024-03-25T04:03:19;5.22;;;2.83;;
75021;SDS011;63583;49.976;20.182;2024-03-25T04:05:45;6.22;;;3.33;;
75021;SDS011;63583;49.976;20.182;2024-03-25T04:08:11;6.60;;;3.20;;
75021;SDS011;63583;49.976;20.182;2024-03-25T04:10:37;5.80;;;3.17;;
75021;SDS011;63583;49.976;20.182;2024-03-25T04:13:03;5.93;;;3.47;;
75021;SDS011;63583;49.976;20.182;2024-03-25T04:15:37;5.50;;;3.35;;
75021;SDS011;63583;49.976;20.182;2024-03-25T04:18:03;5.95;;;3.33;;
75021;SDS011;63583;49.976;20.182;2024-03-25T04:20:30;4.88;;;3.42;;
75021;SDS011;63583;49.976;20.182;2024-03-25T04:23:02;8.18;;;3.88;;
75021;SDS011;63583;49.976;20.182;2024-03-25T04:25:28;6.03;;;3.55;;
75021;SDS011;63583;49.976;20.182;2024-03-25T04:27:53;7.35;;;3.67;;
75021;SDS011;63583;49.976;20.182;2024-03-25T04:30:19;5.72;;;3.00;;
75021;SDS011;63583;49.976;20.182;2024-03-25T04:32:45;6.22;;;3.45;;
75021;SDS011;63583;49.976;20.182;2024-03-25T04:35:11;4.68;;;3.15;;
75021;SDS011;63583;49.976;20.182;2024-03-25T04:37:36;4.88;;;3.05;;
75021;SDS011;63583;49.976;20.182;2024-03-25T04:40:02;5.15;;;2.78;;
75021;SDS011;63583;49.976;20.182;2024-03-25T04:42:28;5.63;;;3.40;;
75021;SDS011;63583;49.976;20.182;2024-03-25T04:44:54;6.03;;;3.20;;
75021;SDS011;63583;49.976;20.182;2024-03-25T04:47:20;5.75;;;3.03;;
75021;SDS011;63583;49.976;20.182;2024-03-25T04:49:46;5.30;;;3.10;;
75021;SDS011;63583;49.976;20.182;2024-03-25T04:52:12;5.35;;;2.95;;
75021;SDS011;63583;49.976;20.182;2024-03-25T04:54:43;6.53;;;3.58;;
75021;SDS011;63583;49.976;20.182;2024-03-25T04:57:09;8.32;;;3.90;;
75021;SDS011;63583;49.976;20.182;2024-03-25T04:59:35;6.93;;;3.90;;
75021;SDS011;63583;49.976;20.182;2024-03-25T05:02:01;6.78;;;3.75;;
75021;SDS011;63583;49.976;20.182;2024-03-25T05:04:27;7.45;;;4.00;;
75021;SDS011;63583;49.976;20.182;2024-03-25T05:06:54;6.45;;;3.42;;
75021;SDS011;63583;49.976;20.182;2024-03-25T05:09:19;6.15;;;3.10;;
75021;SDS011;63583;49.976;20.182;2024-03-25T05:11:45;6.15;;;3.40;;
75021;SDS011;63583;49.976;20.182;2024-03-25T05:14:11;5.95;;;3.35;;
75021;SDS011;63583;49.976;20.182;2024-03-25T05:16:37;5.72;;;3.08;;
75021;SDS011;63583;49.976;20.182;2024-03-25T05:19:03;6.07;;;3.47;;
75021;SDS011;63583;49.976;20.182;2024-03-25T05:21:30;6.03;;;3.28;;
75021;SDS011;63583;49.976;20.182;2024-03-25T05:23:56;8.02;;;3.90;;
75021;SDS011;63583;49.976;20.182;2024-03-25T05:26:22;6.72;;;3.58;;
75021;SDS011;63583;49.976;20.182;2024-03-25T05:28:54;8.98;;;4.20;;
75021;SDS011;63583;49.976;20.182;2024-03-25T05:31:21;7.75;;;4.10;;
75021;SDS011;63583;49.976;20.182;2024-03-25T05:33:46;7.63;;;4.20;;
75021;SDS011;63583;49.976;20.182;2024-03-25T05:36:12;9.98;;;4.45;;
75021;SDS011;63583;49.976;20.182;2024-03-25T05:38:39;6.75;;;4.43;;
75021;SDS011;63583;49.976;20.182;2024-03-25T05:41:05;7.63;;;4.47;;
75021;SDS011;63583;49.976;20.182;2024-03-25T05:43:31;8.85;;;5.43;;
75021;SDS011;63583;49.976;20.182;2024-03-25T05:45:57;8.48;;;5.40;;
75021;SDS011;63583;49.976;20.182;2024-03-25T05:48:26;9.35;;;5.55;;
75021;SDS011;63583;49.976;20.182;2024-03-25T05:51:02;6.38;;;4.25;;
75021;SDS011;63583;49.976;20.182;2024-03-25T05:53:32;5.95;;;3.83;;
75021;SDS011;63583;49.976;20.182;2024-03-25T05:55:57;5.82;;;3.30;;
75021;SDS011;63583;49.976;20.182;2024-03-25T05:58:27;6.47;;;3.53;;
75021;SDS011;63583;49.976;20.182;2024-03-25T06:00:53;4.80;;;2.80;;
75021;SDS011;63583;49.976;20.182;2024-03-25T06:03:20;6.90;;;2.30;;
75021;SDS011;63583;49.976;20.182;2024-03-25T06:05:46;4.47;;;2.60;;
75021;SDS011;63583;49.976;20.182;2024-03-25T06:08:12;4.15;;;2.28;;
75021;SDS011;63583;49.976;20.182;2024-03-25T06:11:00;4.20;;;2.05;;
75021;SDS011;63583;49.976;20.182;2024-03-25T06:13:27;3.35;;;2.03;;
75021;SDS011;63583;49.976;20.182;2024-03-25T06:15:53;5.78;;;2.33;;
75021;SDS011;63583;49.976;20.182;2024-03-25T06:18:19;4.00;;;2.25;;
75021;SDS011;63583;49.976;20.182;2024-03-25T06:20:44;4.68;;;2.15;;
75021;SDS011;63583;49.976;20.182;2024-03-25T06:23:10;3.95;;;2.20;;
75021;SDS011;63583;49.976;20.182;2024-03-25T06:25:46;4.40;;;3.08;;
75021;SDS011;63583;49.976;20.182;2024-03-25T06:28:12;5.70;;;2.70;;
75021;SDS011;63583;49.976;20.182;2024-03-25T06:30:38;3.95;;;2.90;;
75021;SDS011;63583;49.976;20.182;2024-03-25T06:33:22;4.88;;;2.83;;
75021;SDS011;63583;49.976;20.182;2024-03-25T06:36:06;5.28;;;2.70;;
75021;SDS011;63583;49.976;20.182;2024-03-25T06:38:32;3.83;;;2.58;;
75021;SDS011;63583;49.976;20.182;2024-03-25T06:40:58;4.70;;;2.60;;
75021;SDS011;63583;49.976;20.182;2024-03-25T06:43:24;3.50;;;2.40;;
75021;SDS011;63583;49.976;20.182;2024-03-25T06:45:50;2.80;;;1.90;;
75021;SDS011;63583;49.976;20.182;2024-03-25T06:48:16;3.88;;;1.95;;
75021;SDS011;63583;49.976;20.182;2024-03-25T06:50:42;3.50;;;1.95;;
75021;SDS011;63583;49.976;20.182;2024-03-25T06:53:21;4.72;;;2.50;;
75021;SDS011;63583;49.976;20.182;2024-03-25T06:55:57;3.92;;;2.38;;
75021;SDS011;63583;49.976;20.182;2024-03-25T06:58:29;3.05;;;1.90;;
75021;SDS011;63583;49.976;20.182;2024-03-25T07:00:55;3.92;;;2.42;;
75021;SDS011;63583;49.976;20.182;2024-03-25T07:03:22;5.20;;;2.40;;
75021;SDS011;63583;49.976;20.182;2024-03-25T07:05:49;3.33;;;1.90;;
75021;SDS011;63583;49.976;20.182;2024-03-25T07:08:20;3.65;;;2.05;;
75021;SDS011;63583;49.976;20.182;2024-03-25T07:10:46;3.63;;;1.88;;
75021;SDS011;63583;49.976;20.182;2024-03-25T07:13:12;4.50;;;2.17;;
75021;SDS011;63583;49.976;20.182;2024-03-25T07:15:38;3.85;;;1.73;;
75021;SDS011;63583;49.976;20.182;2024-03-25T07:18:05;6.13;;;2.63;;
75021;SDS011;63583;49.976;20.182;2024-03-25T07:20:31;4.03;;;2.50;;
75021;SDS011;63583;49.976;20.182;2024-03-25T07:22:57;4.68;;;2.10;;
75021;SDS011;63583;49.976;20.182;2024-03-25T07:25:23;4.35;;;2.35;;
75021;SDS011;63583;49.976;20.182;2024-03-25T07:27:50;4.25;;;2.10;;
75021;SDS011;63583;49.976;20.182;2024-03-25T07:30:16;3.30;;;1.73;;
75021;SDS011;63583;49.976;20.182;2024-03-25T07:32:42;4.30;;;1.90;;
75021;SDS011;63583;49.976;20.182;2024-03-25T07:35:10;3.40;;;1.95;;
75021;SDS011;63583;49.976;20.182;2024-03-25T07:37:36;2.95;;;1.73;;
75021;SDS011;63583;49.976;20.182;2024-03-25T07:40:02;4.07;;;1.83;;
75021;SDS011;63583;49.976;20.182;2024-03-25T07:42:29;3.95;;;1.95;;
75021;SDS011;63583;49.976;20.182;2024-03-25T07:44:55;3.10;;;1.73;;
75021;SDS011;63583;49.976;20.182;2024-03-25T07:47:22;3.53;;;1.67;;
75021;SDS011;63583;49.976;20.182;2024-03-25T07:49:47;3.97;;;1.55;;
75021;SDS011;63583;49.976;20.182;2024-03-25T07:52:13;2.97;;;1.40;;
75021;SDS011;63583;49.976;20.182;2024-03-25T07:54:39;3.22;;;1.65;;
75021;SDS011;63583;49.976;20.182;2024-03-25T07:57:08;2.95;;;1.40;;
75021;SDS011;63583;49.976;20.182;2024-03-25T07:59:34;3.15;;;1.27;;
75021;SDS011;63583;49.976;20.182;2024-03-25T08:02:00;2.58;;;1.35;;
75021;SDS011;63583;49.976;20.182;2024-03-25T08:04:26;3.13;;;1.50;;
75021;SDS011;63583;49.976;20.182;2024-03-25T08:06:52;2.35;;;1.13;;
75021;SDS011;63583;49.976;20.182;2024-03-25T08:09:18;2.63;;;1.25;;
75021;SDS011;63583;49.976;20.182;2024-03-25T08:11:43;3.55;;;1.70;;
75021;SDS011;63583;49.976;20.182;2024-03-25T08:14:09;2.40;;;1.23;;
75021;SDS011;63583;49.976;20.182;2024-03-25T08:16:35;2.15;;;1.30;;
75021;SDS011;63583;49.976;20.182;2024-03-25T08:19:01;3.05;;;1.40;;
75021;SDS011;63583;49.976;20.182;2024-03-25T08:21:27;2.10;;;1.13;;
75021;SDS011;63583;49.976;20.182;2024-03-25T08:23:53;2.97;;;1.35;;
75021;SDS011;63583;49.976;20.182;2024-03-25T08:26:19;2.80;;;1.35;;
75021;SDS011;63583;49.976;20.182;2024-03-25T08:28:45;3.55;;;1.60;;
75021;SDS011;63583;49.976;20.182;2024-03-25T08:31:11;2.45;;;1.55;;
75021;SDS011;63583;49.976;20.182;2024-03-25T08:33:37;3.25;;;1.58;;
75021;SDS011;63583;49.976;20.182;2024-03-25T08:36:03;2.47;;;1.55;;
75021;SDS011;63583;49.976;20.182;2024-03-25T08:38:29;2.33;;;1.40;;
75021;SDS011;63583;49.976;20.182;2024-03-25T08:40:56;2.67;;;1.60;;
75021;SDS011;63583;49.976;20.182;2024-03-25T08:43:21;3.17;;;1.83;;
75021;SDS011;63583;49.976;20.182;2024-03-25T08:45:47;3.67;;;2.30;;
75021;SDS011;63583;49.976;20.182;2024-03-25T08:48:13;3.97;;;1.88;;
75021;SDS011;63583;49.976;20.182;2024-03-25T08:50:40;4.32;;;1.98;;
75021;SDS011;63583;49.976;20.182;2024-03-25T08:53:06;2.67;;;1.73;;
75021;SDS011;63583;49.976;20.182;2024-03-25T08:55:32;3.30;;;1.92;;
75021;SDS011;63583;49.976;20.182;2024-03-25T08:57:57;3.17;;;1.58;;
75021;SDS011;63583;49.976;20.182;2024-03-25T09:00:26;3.97;;;2.00;;
75021;SDS011;63583;49.976;20.182;2024-03-25T09:02:52;3.53;;;1.80;;
75021;SDS011;63583;49.976;20.182;2024-03-25T09:05:19;3.90;;;1.83;;
75021;SDS011;63583;49.976;20.182;2024-03-25T09:07:46;2.83;;;1.80;;
75021;SDS011;63583;49.976;20.182;2024-03-25T09:10:20;3.25;;;1.67;;
75021;SDS011;63583;49.976;20.182;2024-03-25T09:13:05;2.50;;;1.50;;
75021;SDS011;63583;49.976;20.182;2024-03-25T09:15:31;2.63;;;1.50;;
75021;SDS011;63583;49.976;20.182;2024-03-25T09:17:57;3.15;;;1.77;;
75021;SDS011;63583;49.976;20.182;2024-03-25T09:20:23;2.53;;;1.50;;
75021;SDS011;63583;49.976;20.182;2024-03-25T09:22:48;2.50;;;1.50;;
75021;SDS011;63583;49.976;20.182;2024-03-25T09:25:15;2.67;;;1.73;;
75021;SDS011;63583;49.976;20.182;2024-03-25T09:27:41;3.25;;;1.70;;
75021;SDS011;63583;49.976;20.182;2024-03-25T09:30:11;3.20;;;1.58;;
75021;SDS011;63583;49.976;20.182;2024-03-25T09:32:37;3.22;;;1.70;;
75021;SDS011;63583;49.976;20.182;2024-03-25T09:35:03;2.72;;;1.40;;
75021;SDS011;63583;49.976;20.182;2024-03-25T09:37:30;3.40;;;1.90;;
75021;SDS011;63583;49.976;20.182;2024-03-25T09:39:57;3.20;;;1.60;;
75021;SDS011;63583;49.976;20.182;2024-03-25T09:42:27;3.13;;;1.60;;
75021;SDS011;63583;49.976;20.182;2024-03-25T09:45:08;2.47;;;1.60;;
75021;SDS011;63583;49.976;20.182;2024-03-25T09:47:34;2.95;;;1.70;;
75021;SDS011;63583;49.976;20.182;2024-03-25T09:50:07;3.45;;;1.70;;
75021;SDS011;63583;49.976;20.182;2024-03-25T09:52:37;2.70;;;1.70;;
75021;SDS011;63583;49.976;20.182;2024-03-25T09:55:03;2.40;;;1.65;;
75021;SDS011;63583;49.976;20.182;2024-03-25T09:57:30;3.13;;;1.85;;
75021;SDS011;63583;49.976;20.182;2024-03-25T09:59:56;3.67;;;1.70;;
75021;SDS011;63583;49.976;20.182;2024-03-25T10:02:22;3.30;;;1.80;;
75021;SDS011;63583;49.976;20.182;2024-03-25T10:04:52;3.33;;;1.63;;
75021;SDS011;63583;49.976;20.182;2024-03-25T10:07:21;4.28;;;1.90;;
75021;SDS011;63583;49.976;20.182;2024-03-25T10:09:48;2.67;;;1.70;;
75021;SDS011;63583;49.976;20.182;2024-03-25T10:14:43;3.85;;;1.50;;
75021;SDS011;63583;49.976;20.182;2024-03-25T10:17:09;3.85;;;1.90;;
75021;SDS011;63583;49.976;20.182;2024-03-25T10:19:35;3.53;;;1.92;;
75021;SDS011;63583;49.976;20.182;2024-03-25T10:22:05;3.05;;;2.00;;
75021;SDS011;63583;49.976;20.182;2024-03-25T10:24:44;3.55;;;2.10;;
75021;SDS011;63583;49.976;20.182;2024-03-25T10:27:23;3.45;;;2.10;;
75021;SDS011;63583;49.976;20.182;2024-03-25T10:29:55;2.85;;;2.05;;
75021;SDS011;63583;49.976;20.182;2024-03-25T10:32:21;3.90;;;2.67;;
75021;SDS011;63583;49.976;20.182;2024-03-25T10:34:50;4.78;;;2.70;;
75021;SDS011;63583;49.976;20.182;2024-03-25T10:37:16;4.38;;;2.28;;
75021;SDS011;63583;49.976;20.182;2024-03-25T10:39:50;3.55;;;2.50;;
75021;SDS011;63583;49.976;20.182;2024-03-25T10:42:20;4.53;;;2.50;;
75021;SDS011;63583;49.976;20.182;2024-03-25T10:44:47;3.15;;;2.28;;
75021;SDS011;63583;49.976;20.182;2024-03-25T10:47:19;4.13;;;2.42;;
75021;SDS011;63583;49.976;20.182;2024-03-25T10:49:51;3.80;;;2.50;;
75021;SDS011;63583;49.976;20.182;2024-03-25T10:52:23;4.70;;;2.30;;
75021;SDS011;63583;49.976;20.182;2024-03-25T10:54:50;4.80;;;2.58;;
75021;SDS011;63583;49.976;20.182;2024-03-25T10:57:16;5.13;;;2.40;;
75021;SDS011;63583;49.976;20.182;2024-03-25T10:59:43;3.75;;;2.42;;
75021;SDS011;63583;49.976;20.182;2024-03-25T11:02:09;3.42;;;2.33;;
75021;SDS011;63583;49.976;20.182;2024-03-25T11:04:35;3.17;;;2.00;;
75021;SDS011;63583;49.976;20.182;2024-03-25T11:07:09;4.10;;;2.33;;
75021;SDS011;63583;49.976;20.182;2024-03-25T11:09:39;3.50;;;2.28;;
75021;SDS011;63583;49.976;20.182;2024-03-25T11:12:05;3.55;;;2.70;;
75021;SDS011;63583;49.976;20.182;2024-03-25T11:14:33;4.38;;;2.53;;
75021;SDS011;63583;49.976;20.182;2024-03-25T11:16:59;4.57;;;2.70;;
75021;SDS011;63583;49.976;20.182;2024-03-25T11:19:26;4.43;;;2.80;;
75021;SDS011;63583;49.976;20.182;2024-03-25T11:21:52;3.75;;;2.55;;
75021;SDS011;63583;49.976;20.182;2024-03-25T11:24:27;5.13;;;2.38;;
75021;SDS011;63583;49.976;20.182;2024-03-25T11:26:54;3.30;;;2.30;;
75021;SDS011;63583;49.976;20.182;2024-03-25T11:29:20;4.53;;;2.67;;
75021;SDS011;63583;49.976;20.182;2024-03-25T11:31:45;4.10;;;2.70;;
75021;SDS011;63583;49.976;20.182;2024-03-25T11:34:15;4.30;;;2.42;;
75021;SDS011;63583;49.976;20.182;2024-03-25T11:36:41;4.18;;;2.72;;
75021;SDS011;63583;49.976;20.182;2024-03-25T11:39:07;3.75;;;2.60;;
75021;SDS011;63583;49.976;20.182;2024-03-25T11:41:40;5.78;;;3.17;;
75021;SDS011;63583;49.976;20.182;2024-03-25T11:44:08;3.75;;;2.60;;
75021;SDS011;63583;49.976;20.182;2024-03-25T11:46:35;4.25;;;3.00;;
75021;SDS011;63583;49.976;20.182;2024-03-25T11:49:05;4.57;;;2.45;;
75021;SDS011;63583;49.976;20.182;2024-03-25T11:51:35;3.35;;;1.63;;
75021;SDS011;63583;49.976;20.182;2024-03-25T11:54:04;2.70;;;1.13;;
75021;SDS011;63583;49.976;20.182;2024-03-25T11:56:31;2.15;;;1.33;;
75021;SDS011;63583;49.976;20.182;2024-03-25T11:58:58;2.58;;;1.55;;
75021;SDS011;63583;49.976;20.182;2024-03-25T12:01:25;2.75;;;1.35;;
75021;SDS011;63583;49.976;20.182;2024-03-25T12:03:52;2.92;;;1.13;;
75021;SDS011;63583;49.976;20.182;2024-03-25T12:06:18;3.15;;;1.50;;
75021;SDS011;63583;49.976;20.182;2024-03-25T12:08:44;2.38;;;1.50;;
75021;SDS011;63583;49.976;20.182;2024-03-25T12:11:29;3.20;;;1.55;;
75021;SDS011;63583;49.976;20.182;2024-03-25T12:13:55;2.83;;;1.23;;
75021;SDS011;63583;49.976;20.182;2024-03-25T12:16:22;3.97;;;1.73;;
75021;SDS011;63583;49.976;20.182;2024-03-25T12:18:49;2.88;;;1.50;;
75021;SDS011;63583;49.976;20.182;2024-03-25T12:21:14;2.97;;;1.73;;
75021;SDS011;63583;49.976;20.182;2024-03-25T12:23:41;4.55;;;2.28;;
75021;SDS011;63583;49.976;20.182;2024-03-25T12:26:07;4.22;;;2.13;;
75021;SDS011;63583;49.976;20.182;2024-03-25T12:28:34;4.82;;;2.45;;
75021;SDS011;63583;49.976;20.182;2024-03-25T12:31:02;4.65;;;2.60;;
75021;SDS011;63583;49.976;20.182;2024-03-25T12:33:28;4.22;;;2.17;;
75021;SDS011;63583;49.976;20.182;2024-03-25T12:35:53;4.20;;;2.20;;
75021;SDS011;63583;49.976;20.182;2024-03-25T12:40:53;3.30;;;1.83;;
75021;SDS011;63583;49.976;20.182;2024-03-25T12:43:20;2.97;;;2.00;;
75021;SDS011;63583;49.976;20.182;2024-03-25T12:45:45;3.65;;;2.22;;
75021;SDS011;63583;49.976;20.182;2024-03-25T12:48:12;4.50;;;2.30;;
75021;SDS011;63583;49.976;20.182;2024-03-25T12:50:37;3.80;;;2.33;;
75021;SDS011;63583;49.976;20.182;2024-03-25T12:53:03;4.45;;;2.58;;
75021;SDS011;63583;49.976;20.182;2024-03-25T12:55:29;5.40;;;2.50;;
75021;SDS011;63583;49.976;20.182;2024-03-25T12:57:55;4.57;;;2.50;;
75021;SDS011;63583;49.976;20.182;2024-03-25T13:00:21;5.47;;;2.40;;
75021;SDS011;63583;49.976;20.182;2024-03-25T13:02:47;4.43;;;2.53;;
75021;SDS011;63583;49.976;20.182;2024-03-25T13:05:14;3.17;;;2.22;;
75021;SDS011;63583;49.976;20.182;2024-03-25T13:07:40;4.35;;;2.58;;
75021;SDS011;63583;49.976;20.182;2024-03-25T13:10:05;4.95;;;2.70;;
75021;SDS011;63583;49.976;20.182;2024-03-25T13:12:32;3.85;;;2.50;;
75021;SDS011;63583;49.976;20.182;2024-03-25T13:14:57;4.97;;;2.42;;
75021;SDS011;63583;49.976;20.182;2024-03-25T13:17:24;5.47;;;2.40;;
75021;SDS011;63583;49.976;20.182;2024-03-25T13:19:50;5.43;;;2.60;;
75021;SDS011;63583;49.976;20.182;2024-03-25T13:22:16;4.53;;;2.80;;
75021;SDS011;63583;49.976;20.182;2024-03-25T13:24:42;4.25;;;2.38;;
75021;SDS011;63583;49.976;20.182;2024-03-25T13:27:08;3.72;;;2.20;;
75021;SDS011;63583;49.976;20.182;2024-03-25T13:29:34;2.83;;;1.90;;
75021;SDS011;63583;49.976;20.182;2024-03-25T13:32:03;2.90;;;1.67;;
75021;SDS011;63583;49.976;20.182;2024-03-25T13:34:28;3.95;;;1.70;;
75021;SDS011;63583;49.976;20.182;2024-03-25T13:36:55;2.42;;;1.23;;
75021;SDS011;63583;49.976;20.182;2024-03-25T13:39:20;2.30;;;1.42;;
75021;SDS011;63583;49.976;20.182;2024-03-25T13:41:46;2.60;;;1.40;;
75021;SDS011;63583;49.976;20.182;2024-03-25T13:44:13;2.97;;;1.50;;
75021;SDS011;63583;49.976;20.182;2024-03-25T13:46:39;2.70;;;1.35;;
75021;SDS011;63583;49.976;20.182;2024-03-25T13:49:05;3.13;;;1.75;;
75021;SDS011;63583;49.976;20.182;2024-03-25T13:51:31;3.28;;;1.50;;
75021;SDS011;63583;49.976;20.182;2024-03-25T13:53:56;2.25;;;1.40;;
75021;SDS011;63583;49.976;20.182;2024-03-25T13:56:22;2.38;;;1.35;;
75021;SDS011;63583;49.976;20.182;2024-03-25T13:58:48;2.70;;;1.67;;
75021;SDS011;63583;49.976;20.182;2024-03-25T14:01:14;3.25;;;1.90;;
75021;SDS011;63583;49.976;20.182;2024-03-25T14:03:40;3.22;;;1.88;;
75021;SDS011;63583;49.976;20.182;2024-03-25T14:06:07;2.88;;;1.63;;
75021;SDS011;63583;49.976;20.182;2024-03-25T14:08:32;2.30;;;1.50;;
75021;SDS011;63583;49.976;20.182;2024-03-25T14:10:58;3.47;;;1.65;;
75021;SDS011;63583;49.976;20.182;2024-03-25T14:13:25;3.85;;;1.77;;
75021;SDS011;63583;49.976;20.182;2024-03-25T14:15:51;3.17;;;1.40;;
75021;SDS011;63583;49.976;20.182;2024-03-25T14:18:17;3.40;;;1.50;;
75021;SDS011;63583;49.976;20.182;2024-03-25T14:20:43;2.65;;;1.65;;
75021;SDS011;63583;49.976;20.182;2024-03-25T14:23:09;3.30;;;1.95;;
75021;SDS011;63583;49.976;20.182;2024-03-25T14:25:35;3.67;;;1.80;;
75021;SDS011;63583;49.976;20.182;2024-03-25T14:28:01;2.40;;;1.63;;
75021;SDS011;63583;49.976;20.182;2024-03-25T14:30:27;3.45;;;2.00;;
75021;SDS011;63583;49.976;20.182;2024-03-25T14:32:53;3.20;;;1.83;;
75021;SDS011;63583;49.976;20.182;2024-03-25T14:35:21;3.00;;;1.88;;
75021;SDS011;63583;49.976;20.182;2024-03-25T14:37:47;3.17;;;1.85;;
75021;SDS011;63583;49.976;20.182;2024-03-25T14:40:14;3.70;;;1.85;;